TimeEST,TemperatureF,Dew PointF,Humidity,Sea Level PressureIn,VisibilityMPH,Wind Direction,Wind SpeedMPH,Gust SpeedMPH,PrecipitationIn,Events,Conditions,WindDirDegrees,DateUTC
12:15 AM,37.6,37.4,99,30.15,2.5,Calm,Calm,-,N/A,Rain,Light Rain,0,2013-11-22 05:15:00
12:35 AM,37.6,37.4,99,30.15,3.0,Calm,Calm,-,N/A,Rain,Light Rain,0,2013-11-22 05:35:00
12:55 AM,37.6,37.4,99,30.15,3.0,Calm,Calm,-,N/A,,Overcast,0,2013-11-22 05:55:00
1:15 AM,37.6,37.4,99,30.14,3.0,Calm,Calm,-,N/A,,Overcast,0,2013-11-22 06:15:00
1:35 AM,37.6,37.4,99,30.14,2.0,Calm,Calm,-,N/A,,Overcast,0,2013-11-22 06:35:00
1:55 AM,38.3,37.6,97,30.14,2.5,Calm,Calm,-,N/A,,Overcast,0,2013-11-22 06:55:00
2:15 AM,37.6,36.7,97,30.14,2.5,Calm,Calm,-,N/A,,Light Drizzle,0,2013-11-22 07:15:00
2:35 AM,37.6,37.4,99,30.14,2.5,WNW,3.5,-,N/A,,Overcast,300,2013-11-22 07:35:00
2:55 AM,38.3,37.8,98,30.14,2.5,NW,4.6,-,N/A,,Overcast,310,2013-11-22 07:55:00
3:15 AM,38.3,37.8,98,30.14,2.5,NW,5.8,-,N/A,,Overcast,320,2013-11-22 08:15:00
3:35 AM,37.6,37.4,99,30.14,3.0,NW,5.8,-,N/A,Rain,Light Rain,310,2013-11-22 08:35:00
3:55 AM,38.1,37.4,97,30.14,5.0,NW,9.2,-,N/A,Rain,Light Rain,310,2013-11-22 08:55:00
4:15 AM,37.6,36.9,97,30.15,7.0,NW,8.1,-,N/A,Rain,Light Rain,310,2013-11-22 09:15:00
4:35 AM,37.6,36.7,97,30.16,10.0,NW,10.4,-,N/A,,Light Drizzle,320,2013-11-22 09:35:00
4:55 AM,37.6,36.5,96,30.15,10.0,NW,10.4,-,N/A,,Overcast,320,2013-11-22 09:55:00
5:15 AM,35.6,34.0,94,30.16,10.0,NNW,8.1,18.4,N/A,,Overcast,330,2013-11-22 10:15:00
5:35 AM,35.2,33.4,93,30.16,10.0,NW,10.4,18.4,N/A,Rain,Light Rain,320,2013-11-22 10:35:00
5:55 AM,34.3,32.9,94,30.17,10.0,NW,12.7,-,N/A,,Overcast,320,2013-11-22 10:55:00
6:15 AM,33.1,32.0,96,30.18,10.0,NW,9.2,20.7,N/A,,Overcast,320,2013-11-22 11:15:00
6:35 AM,32.9,31.8,96,30.18,10.0,NW,10.4,16.1,N/A,,Overcast,320,2013-11-22 11:35:00
6:54 AM,32.9,31.1,93,30.18,10.0,NW,10.4,17.3,N/A,,Overcast,320,2013-11-22 11:54:00
7:15 AM,32.9,31.6,95,30.18,10.0,NW,8.1,-,N/A,,Overcast,320,2013-11-22 12:15:00
7:35 AM,32.9,31.5,94,30.18,7.0,NNW,12.7,16.1,N/A,Snow,Light Snow,340,2013-11-22 12:35:00
7:55 AM,32.9,31.6,95,30.20,3.0,NW,10.4,17.3,N/A,Snow,Light Snow,320,2013-11-22 12:55:00
8:15 AM,32.9,31.1,93,30.20,5.0,NW,9.2,-,N/A,Snow,Light Snow,320,2013-11-22 13:15:00
8:35 AM,32.9,30.6,91,30.21,10.0,NW,10.4,-,N/A,,Overcast,320,2013-11-22 13:35:00
8:55 AM,32.9,30.0,89,30.21,4.0,NW,9.2,17.3,N/A,Snow,Light Snow,320,2013-11-22 13:55:00
9:15 AM,32.9,30.6,91,30.21,1.8,NW,9.2,-,N/A,Snow,Light Snow,320,2013-11-22 14:15:00
9:35 AM,32.9,31.1,93,30.22,2.0,WNW,12.7,-,N/A,Snow,Light Snow,300,2013-11-22 14:35:00
9:55 AM,32.9,30.7,92,30.24,5.0,NW,10.4,17.3,N/A,Snow,Light Snow,310,2013-11-22 14:55:00
10:15 AM,32.9,30.7,92,30.24,1.5,WNW,18.4,27.6,N/A,Snow,Light Snow,300,2013-11-22 15:15:00
10:35 AM,32.9,29.3,87,30.25,7.0,NNW,17.3,24.2,N/A,,Overcast,330,2013-11-22 15:35:00
10:55 AM,32.9,29.3,87,30.26,7.0,NW,15.0,26.5,N/A,Snow,Light Snow,310,2013-11-22 15:55:00
11:15 AM,32.4,28.2,85,30.26,5.0,NW,12.7,23.0,N/A,Snow,Light Snow,320,2013-11-22 16:15:00
11:35 AM,32.9,29.3,87,30.26,5.0,NW,12.7,21.9,N/A,Snow,Light Snow,320,2013-11-22 16:35:00
11:54 AM,32.9,28.2,83,30.26,10.0,NNW,11.5,-,N/A,,Overcast,330,2013-11-22 16:54:00
12:15 PM,32.5,29.8,90,30.26,1.8,NNW,13.8,18.4,N/A,Snow,Light Snow,330,2013-11-22 17:15:00
12:35 PM,32.5,29.8,90,30.26,2.5,WNW,8.1,-,N/A,Snow,Light Snow,290,2013-11-22 17:35:00
12:55 PM,31.8,28.8,88,30.27,4.0,NW,15.0,19.6,N/A,,Overcast,320,2013-11-22 17:55:00
1:15 PM,32.9,29.3,87,30.27,7.0,NW,11.5,17.3,N/A,,Overcast,310,2013-11-22 18:15:00
1:34 PM,32.9,28.0,82,30.26,10.0,NW,12.7,23.0,N/A,,Overcast,320,2013-11-22 18:34:00
1:55 PM,32.9,28.4,84,30.27,10.0,WNW,15.0,23.0,N/A,,Overcast,300,2013-11-22 18:55:00
2:14 PM,32.9,27.7,81,30.27,10.0,NW,12.7,24.2,N/A,,Overcast,310,2013-11-22 19:14:00
2:35 PM,32.9,24.8,72,30.27,10.0,NW,17.3,25.3,N/A,,Mostly Cloudy,310,2013-11-22 19:35:00
2:55 PM,32.4,25.0,74,30.28,10.0,NW,12.7,-,N/A,,Mostly Cloudy,310,2013-11-22 19:55:00
3:15 PM,32.9,23.7,69,30.28,10.0,NW,15.0,23.0,N/A,,Overcast,310,2013-11-22 20:15:00
3:35 PM,30.6,22.1,71,30.29,10.0,WNW,13.8,21.9,N/A,,Mostly Cloudy,300,2013-11-22 20:35:00
3:55 PM,30.7,20.7,66,30.30,10.0,WNW,13.8,20.7,N/A,,Scattered Clouds,290,2013-11-22 20:55:00
4:15 PM,30.6,20.8,67,30.31,10.0,WNW,12.7,21.9,N/A,,Scattered Clouds,300,2013-11-22 21:15:00
4:35 PM,29.1,20.1,69,30.32,10.0,NW,9.2,18.4,N/A,,Clear,310,2013-11-22 21:35:00
4:55 PM,28.2,19.6,70,30.32,10.0,WNW,9.2,-,N/A,,Scattered Clouds,300,2013-11-22 21:55:00
5:15 PM,28.0,20.3,73,30.33,10.0,WNW,9.2,-,N/A,,Scattered Clouds,300,2013-11-22 22:15:00
5:35 PM,28.0,20.3,73,30.33,10.0,West,12.7,17.3,N/A,,Mostly Cloudy,280,2013-11-22 22:35:00
5:55 PM,28.0,19.4,70,30.33,10.0,WNW,10.4,17.3,N/A,,Mostly Cloudy,290,2013-11-22 22:55:00
6:15 PM,28.0,20.3,73,30.32,10.0,WNW,5.8,-,N/A,,Mostly Cloudy,290,2013-11-22 23:15:00
6:34 PM,28.0,21.0,75,30.31,10.0,WNW,5.8,-,N/A,,Mostly Cloudy,300,2013-11-22 23:34:00
6:55 PM,28.0,21.2,76,30.31,10.0,West,4.6,-,N/A,,Scattered Clouds,270,2013-11-22 23:55:00
7:15 PM,28.0,21.6,77,30.31,10.0,West,5.8,-,N/A,,Mostly Cloudy,270,2013-11-23 00:15:00
7:35 PM,28.0,21.2,76,30.30,10.0,West,4.6,-,N/A,,Mostly Cloudy,260,2013-11-23 00:35:00
7:55 PM,28.0,21.6,77,30.30,10.0,West,5.8,-,N/A,,Overcast,270,2013-11-23 00:55:00
8:14 PM,28.0,21.2,76,30.30,10.0,WNW,5.8,-,N/A,,Overcast,290,2013-11-23 01:14:00
8:35 PM,28.0,21.7,77,30.30,10.0,Calm,Calm,-,N/A,,Mostly Cloudy,0,2013-11-23 01:35:00
8:55 PM,28.0,21.7,77,30.29,10.0,West,6.9,-,N/A,,Mostly Cloudy,260,2013-11-23 01:55:00
9:15 PM,28.0,22.1,78,30.29,10.0,WSW,5.8,-,N/A,,Overcast,250,2013-11-23 02:15:00
9:35 PM,28.0,21.7,77,30.29,10.0,West,8.1,-,N/A,,Overcast,280,2013-11-23 02:35:00
9:54 PM,28.0,21.2,76,30.28,10.0,West,8.1,-,N/A,,Overcast,260,2013-11-23 02:54:00
10:15 PM,28.0,21.7,77,30.27,10.0,WSW,4.6,-,N/A,,Overcast,250,2013-11-23 03:15:00
10:35 PM,28.0,21.9,78,30.26,10.0,WSW,4.6,-,N/A,,Overcast,250,2013-11-23 03:35:00
10:55 PM,28.0,22.8,81,30.25,10.0,SW,4.6,-,N/A,,Mostly Cloudy,230,2013-11-23 03:55:00
11:15 PM,28.0,23.4,83,30.24,10.0,SW,4.6,-,N/A,,Clear,220,2013-11-23 04:15:00
11:35 PM,28.0,23.9,84,30.23,10.0,SW,5.8,-,N/A,,Clear,230,2013-11-23 04:35:00
11:55 PM,28.0,24.1,85,30.22,10.0,WSW,8.1,-,N/A,,Clear,240,2013-11-23 04:55:00